createdAt,value
2023-03-20T00:02:06.885Z,12.83
2023-03-20T00:04:34.213Z,11.47
2023-03-20T00:07:00.900Z,8.47
2023-03-20T00:09:28.372Z,9.37
2023-03-20T00:11:56.138Z,9.23
2023-03-20T00:14:24.900Z,9.30
2023-03-20T00:16:52.314Z,9.03
2023-03-20T00:19:23.238Z,7.87
2023-03-20T00:21:51.009Z,5.67
2023-03-20T00:24:17.730Z,6.20
2023-03-20T00:26:46.493Z,6.53
2023-03-20T00:29:21.486Z,7.17
2023-03-20T00:31:49.013Z,7.13
2023-03-20T00:34:17.552Z,7.43
2023-03-20T00:36:44.193Z,6.90
2023-03-20T00:39:10.990Z,5.80
2023-03-20T00:41:43.029Z,6.30
2023-03-20T00:44:23.989Z,5.03
2023-03-20T00:47:00.607Z,5.50
2023-03-20T00:49:35.334Z,6.20
2023-03-20T00:52:03.496Z,6.53
2023-03-20T00:54:30.897Z,5.87
2023-03-20T00:57:09.231Z,6.73
2023-03-20T00:59:41.894Z,8.10
2023-03-20T01:02:11.730Z,7.93
2023-03-20T01:04:42.291Z,8.57
2023-03-20T01:07:14.042Z,8.53
2023-03-20T01:09:41.740Z,8.60
2023-03-20T01:12:12.335Z,7.43
2023-03-20T01:14:39.220Z,8.17
2023-03-20T01:17:06.037Z,8.30
2023-03-20T01:19:32.766Z,7.17
2023-03-20T01:21:59.471Z,6.80
2023-03-20T01:24:26.223Z,6.37
2023-03-20T01:26:54.789Z,6.27
2023-03-20T01:29:21.457Z,7.23
2023-03-20T01:31:49.228Z,7.70
2023-03-20T01:34:19.400Z,8.50
2023-03-20T01:36:51.021Z,9.00
2023-03-20T01:39:19.296Z,8.67
2023-03-20T01:41:47.267Z,9.17
2023-03-20T01:44:22.257Z,8.37
2023-03-20T01:46:51.904Z,8.20
2023-03-20T01:49:21.660Z,5.90
2023-03-20T01:51:50.387Z,5.40
2023-03-20T01:54:30.945Z,3.77
2023-03-20T01:57:03.393Z,3.97
2023-03-20T01:59:36.399Z,3.50
2023-03-20T02:02:05.564Z,3.13
2023-03-20T02:04:44.367Z,3.67
2023-03-20T02:07:13.554Z,3.20
2023-03-20T02:09:40.295Z,3.20
2023-03-20T02:12:07.048Z,3.53
2023-03-20T02:14:33.763Z,3.20
2023-03-20T02:17:01.871Z,3.20
2023-03-20T02:19:42.740Z,3.70
2023-03-20T02:22:30.593Z,3.57
2023-03-20T02:25:18.826Z,5.07
2023-03-20T02:28:23.071Z,5.47
2023-03-20T02:30:58.832Z,5.83
2023-03-20T02:33:37.126Z,6.70
2023-03-20T02:36:13.436Z,6.63
2023-03-20T02:39:11.334Z,7.10
2023-03-20T02:41:52.968Z,8.00
2023-03-20T02:44:34.421Z,8.73
2023-03-20T02:47:26.631Z,8.97
2023-03-20T02:50:07.755Z,9.70
2023-03-20T02:52:34.381Z,10.87
2023-03-20T02:55:39.927Z,10.70
2023-03-20T02:58:20.773Z,10.97
2023-03-20T03:01:01.688Z,11.17
2023-03-20T03:03:43.198Z,10.73
2023-03-20T03:06:13.487Z,9.97
2023-03-20T03:08:45.731Z,10.23
2023-03-20T03:11:12.813Z,9.60
2023-03-20T03:13:45.978Z,7.73
2023-03-20T03:16:19.753Z,7.60
2023-03-20T03:18:47.709Z,6.33
2023-03-20T03:21:17.514Z,5.93
2023-03-20T03:23:49.132Z,6.23
2023-03-20T03:26:22.834Z,4.90
2023-03-20T03:28:58.003Z,4.90
2023-03-20T03:31:25.784Z,4.90
2023-03-20T03:33:56.167Z,5.00
2023-03-20T03:36:43.080Z,4.77
2023-03-20T03:39:18.520Z,4.07
2023-03-20T03:42:11.489Z,4.50
2023-03-20T03:45:15.778Z,5.10
2023-03-20T03:47:52.138Z,4.50
2023-03-20T03:50:48.292Z,4.20
2023-03-20T03:53:20.310Z,4.03
2023-03-20T03:55:52.689Z,4.37
2023-03-20T03:58:27.752Z,4.17
2023-03-20T04:00:57.742Z,4.80
2023-03-20T04:03:31.529Z,4.10
2023-03-20T04:05:59.684Z,5.03
2023-03-20T04:08:26.959Z,5.10
2023-03-20T04:10:53.657Z,5.53
2023-03-20T04:13:20.411Z,6.20
2023-03-20T04:15:47.346Z,7.07
2023-03-20T04:18:19.436Z,6.67
2023-03-20T04:20:47.318Z,6.47
2023-03-20T04:23:14.731Z,6.80
2023-03-20T04:25:41.662Z,6.73
2023-03-20T04:28:08.529Z,6.40
2023-03-20T04:30:35.405Z,6.43
2023-03-20T04:33:02.091Z,7.07
2023-03-20T04:35:28.908Z,7.47
2023-03-20T04:37:55.566Z,8.27
2023-03-20T04:40:22.296Z,7.97
2023-03-20T04:42:49.013Z,8.20
2023-03-20T04:45:15.804Z,8.53
2023-03-20T04:47:42.495Z,9.10
2023-03-20T04:50:09.810Z,8.77
2023-03-20T04:52:36.473Z,8.60
2023-03-20T04:55:03.309Z,9.03
2023-03-20T04:57:31.930Z,9.33
2023-03-20T04:59:58.839Z,9.50
2023-03-20T05:02:25.582Z,10.00
2023-03-20T05:04:52.280Z,8.93
2023-03-20T05:07:19.043Z,10.33
2023-03-20T05:09:46.000Z,10.03
2023-03-20T05:12:13.220Z,9.77
2023-03-20T05:14:40.011Z,10.17
2023-03-20T05:17:06.836Z,9.77
2023-03-20T05:19:33.605Z,10.53
2023-03-20T05:22:01.243Z,10.10
2023-03-20T05:24:29.134Z,11.10
2023-03-20T05:26:55.856Z,10.60
2023-03-20T05:29:22.640Z,12.03
2023-03-20T05:31:49.357Z,11.47
2023-03-20T05:34:16.229Z,11.40
2023-03-20T05:36:42.953Z,10.20
2023-03-20T05:39:09.645Z,10.03
2023-03-20T05:41:37.125Z,10.30
2023-03-20T05:44:04.369Z,10.90
2023-03-20T05:46:31.300Z,10.00
2023-03-20T05:48:58.068Z,10.73
2023-03-20T05:51:24.864Z,11.23
2023-03-20T05:53:51.534Z,12.23
2023-03-20T05:56:18.322Z,12.37
2023-03-20T05:58:45.295Z,13.17
2023-03-20T06:01:19.834Z,13.63
2023-03-20T06:03:46.593Z,13.50
2023-03-20T06:06:13.346Z,13.50
2023-03-20T06:08:40.669Z,11.53
2023-03-20T06:11:07.750Z,11.17
2023-03-20T06:13:34.421Z,9.53
2023-03-20T06:16:01.298Z,9.50
2023-03-20T06:18:28.042Z,9.60
2023-03-20T06:20:56.361Z,9.93
2023-03-20T06:23:23.075Z,9.07
2023-03-20T06:25:50.602Z,8.43
2023-03-20T06:28:18.463Z,9.07
2023-03-20T06:30:45.126Z,9.13
2023-03-20T06:33:11.906Z,9.00
2023-03-20T06:35:39.257Z,8.57
2023-03-20T06:38:06.376Z,8.93
2023-03-20T06:40:33.281Z,7.93
2023-03-20T06:42:59.984Z,7.70
2023-03-20T06:45:26.781Z,7.60
2023-03-20T06:47:53.452Z,8.10
2023-03-20T06:50:20.173Z,7.10
2023-03-20T06:52:47.491Z,7.20
2023-03-20T06:55:14.618Z,7.10
2023-03-20T06:57:41.367Z,7.10
2023-03-20T07:00:10.245Z,6.83
2023-03-20T07:02:36.964Z,6.77
2023-03-20T07:05:04.015Z,7.03
2023-03-20T07:07:30.726Z,6.97
2023-03-20T07:09:57.397Z,6.37
2023-03-20T07:12:28.490Z,6.27
2023-03-20T07:14:56.134Z,5.80
2023-03-20T07:17:23.434Z,6.20
2023-03-20T07:19:50.287Z,5.43
2023-03-20T07:22:26.227Z,4.93
2023-03-20T07:24:53.118Z,5.20
2023-03-20T07:27:20.153Z,5.63
2023-03-20T07:29:46.894Z,5.30
2023-03-20T07:32:13.739Z,4.90
2023-03-20T07:34:40.489Z,4.63
2023-03-20T07:37:07.310Z,5.20
2023-03-20T07:39:34.056Z,4.90
2023-03-20T07:42:00.824Z,4.63
2023-03-20T07:44:27.620Z,4.80
2023-03-20T07:46:54.300Z,5.00
2023-03-20T07:49:21.048Z,5.13
2023-03-20T07:51:48.848Z,5.20
2023-03-20T07:54:16.721Z,4.63
2023-03-20T07:56:43.593Z,5.03
2023-03-20T07:59:10.265Z,5.13
2023-03-20T08:01:37.026Z,5.57
2023-03-20T08:04:03.887Z,5.43
2023-03-20T08:06:30.983Z,5.20
2023-03-20T08:08:57.894Z,5.70
2023-03-20T08:11:24.612Z,5.20
2023-03-20T08:13:51.623Z,5.00
2023-03-20T08:16:18.363Z,5.37
2023-03-20T08:18:45.290Z,4.70
2023-03-20T08:21:12.035Z,5.40
2023-03-20T08:23:38.747Z,5.70
2023-03-20T08:26:05.466Z,5.07
2023-03-20T08:28:46.602Z,5.50
2023-03-20T08:31:14.682Z,5.33
2023-03-20T08:33:41.534Z,5.90
2023-03-20T08:36:08.645Z,6.20
2023-03-20T08:38:35.955Z,5.77
2023-03-20T08:41:02.707Z,5.40
2023-03-20T08:43:29.881Z,6.00
2023-03-20T08:45:56.798Z,5.67
2023-03-20T08:48:23.634Z,5.70
2023-03-20T08:50:50.519Z,6.67
2023-03-20T08:53:17.232Z,6.53
2023-03-20T08:55:53.489Z,7.60
2023-03-20T08:58:21.438Z,6.60
2023-03-20T09:00:48.085Z,7.67
2023-03-20T09:03:17.570Z,7.47
2023-03-20T09:05:46.109Z,7.70
2023-03-20T09:08:13.818Z,9.20
2023-03-20T09:10:40.887Z,10.40
2023-03-20T09:13:25.636Z,10.07
2023-03-20T09:15:53.930Z,10.10
2023-03-20T09:18:21.561Z,11.27
2023-03-20T09:20:49.165Z,12.50
2023-03-20T09:23:16.041Z,10.77
2023-03-20T09:25:42.776Z,12.10
2023-03-20T09:28:09.500Z,12.43
2023-03-20T09:30:37.326Z,12.83
2023-03-20T09:33:04.260Z,12.40
2023-03-20T09:35:31.423Z,11.90
2023-03-20T09:37:58.239Z,12.43
2023-03-20T09:40:28.223Z,13.80
2023-03-20T09:43:10.191Z,13.60
2023-03-20T09:46:04.452Z,14.60
2023-03-20T09:48:43.282Z,16.07
2023-03-20T09:51:13.023Z,16.00
2023-03-20T09:53:46.388Z,15.53
2023-03-20T09:56:26.906Z,15.30
2023-03-20T09:58:56.972Z,15.37
2023-03-20T10:01:30.410Z,15.40
2023-03-20T10:04:04.622Z,14.53
2023-03-20T10:06:31.304Z,15.00
2023-03-20T10:08:58.321Z,14.73
2023-03-20T10:12:03.746Z,15.03
2023-03-20T10:14:52.859Z,13.87
2023-03-20T10:17:43.829Z,14.47
2023-03-20T10:20:36.852Z,14.07
2023-03-20T10:23:13.472Z,14.27
2023-03-20T10:25:46.126Z,15.00
2023-03-20T10:28:22.130Z,15.10
2023-03-20T10:31:13.256Z,14.23
2023-03-20T10:34:07.116Z,15.30
2023-03-20T10:36:54.033Z,13.90
2023-03-20T10:39:38.795Z,15.40
2023-03-20T10:42:15.378Z,14.90
2023-03-20T10:44:49.858Z,16.83
2023-03-20T10:47:21.837Z,16.37
2023-03-20T10:50:00.359Z,15.57
2023-03-20T10:52:32.332Z,15.57
2023-03-20T10:55:05.522Z,14.23
2023-03-20T10:57:37.573Z,15.53
2023-03-20T11:00:10.989Z,15.30
2023-03-20T11:02:37.995Z,13.80
2023-03-20T11:05:20.339Z,14.73
2023-03-20T11:07:49.232Z,15.40
2023-03-20T11:10:17.265Z,14.37
2023-03-20T11:12:46.651Z,14.40
2023-03-20T11:15:33.476Z,14.73
2023-03-20T11:18:05.555Z,13.77
2023-03-20T11:20:56.572Z,13.30
2023-03-20T11:23:31.370Z,13.63
2023-03-20T11:26:01.124Z,12.57
2023-03-20T11:28:41.866Z,12.50
2023-03-20T11:31:11.493Z,12.57
2023-03-20T11:33:42.865Z,12.27
2023-03-20T11:36:20.569Z,11.60
2023-03-20T11:38:47.496Z,12.10
2023-03-20T11:41:19.390Z,12.97
2023-03-20T11:43:46.172Z,13.03
2023-03-20T11:46:13.764Z,13.57
2023-03-20T11:48:45.874Z,13.50
2023-03-20T11:51:21.877Z,13.30
2023-03-20T11:53:48.474Z,13.83
2023-03-20T11:56:23.815Z,13.87
2023-03-20T11:59:04.232Z,12.83
2023-03-20T12:01:44.562Z,12.67
2023-03-20T12:04:15.835Z,12.47
2023-03-20T12:06:47.209Z,12.83
2023-03-20T12:09:26.665Z,12.80
2023-03-20T12:12:03.533Z,15.00
2023-03-20T12:14:37.652Z,13.87
2023-03-20T12:17:32.547Z,15.03
2023-03-20T12:20:11.264Z,14.97
2023-03-20T12:22:49.622Z,14.47
2023-03-20T12:25:19.123Z,14.40
2023-03-20T12:27:53.350Z,14.40
2023-03-20T12:30:30.594Z,13.17
2023-03-20T12:33:13.104Z,12.60
2023-03-20T12:35:46.395Z,11.57
2023-03-20T12:38:34.412Z,12.83
2023-03-20T12:41:12.751Z,11.50
2023-03-20T12:43:50.285Z,11.73
2023-03-20T12:46:43.279Z,11.23
2023-03-20T12:49:15.865Z,10.07
2023-03-20T12:52:09.327Z,9.80
2023-03-20T12:55:10.082Z,11.33
2023-03-20T12:58:01.234Z,11.27
2023-03-20T13:00:40.496Z,10.87
2023-03-20T13:03:28.952Z,10.20
2023-03-20T13:06:44.200Z,11.03
2023-03-20T13:09:35.695Z,11.00
2023-03-20T13:12:40.397Z,10.20
2023-03-20T13:15:34.346Z,10.07
2023-03-20T13:18:18.464Z,10.40
2023-03-20T13:21:01.524Z,11.47
2023-03-20T13:23:33.684Z,11.30
2023-03-20T13:26:19.670Z,11.33
2023-03-20T13:29:02.628Z,10.23
2023-03-20T13:31:38.458Z,10.50
2023-03-20T13:34:20.905Z,10.57
2023-03-20T13:37:22.311Z,11.07
2023-03-20T13:40:20.318Z,11.97
2023-03-20T13:43:20.972Z,10.07
2023-03-20T13:45:52.089Z,9.50
2023-03-20T13:48:33.967Z,8.60
2023-03-20T13:51:37.203Z,9.00
2023-03-20T13:54:31.930Z,9.13
2023-03-20T13:57:10.936Z,9.30
2023-03-20T13:59:50.480Z,10.13
2023-03-20T14:02:36.705Z,9.47
2023-03-20T14:05:18.773Z,10.03
2023-03-20T14:07:47.433Z,8.90
2023-03-20T14:10:23.460Z,8.57
2023-03-20T14:12:55.375Z,9.10
2023-03-20T14:15:26.890Z,9.67
2023-03-20T14:17:53.755Z,9.47
2023-03-20T14:20:26.937Z,9.10
2023-03-20T14:22:53.716Z,9.77
2023-03-20T14:25:23.769Z,10.03
2023-03-20T14:27:57.679Z,9.30
2023-03-20T14:30:30.656Z,10.07
2023-03-20T14:33:05.419Z,7.93
2023-03-20T14:35:38.212Z,8.37
2023-03-20T14:38:30.804Z,8.47
2023-03-20T14:41:02.364Z,8.27
2023-03-20T14:44:20.093Z,8.17
2023-03-20T14:46:53.320Z,8.37
2023-03-20T14:49:46.891Z,9.67
2023-03-20T14:52:26.651Z,9.13
2023-03-20T14:54:54.849Z,10.73
2023-03-20T14:57:48.790Z,11.23
2023-03-20T15:00:22.748Z,11.43
2023-03-20T15:02:52.906Z,11.50
2023-03-20T15:05:32.447Z,11.90
2023-03-20T15:08:05.903Z,11.33
2023-03-20T15:10:37.406Z,13.27
2023-03-20T15:13:08.185Z,11.30
2023-03-20T15:15:34.813Z,12.60
2023-03-20T15:18:13.943Z,12.63
2023-03-20T15:20:45.458Z,13.33
2023-03-20T15:23:13.624Z,14.20
2023-03-20T15:25:46.056Z,14.30
2023-03-20T15:28:27.806Z,13.57
2023-03-20T15:30:59.350Z,14.03
2023-03-20T15:33:33.200Z,14.00
2023-03-20T15:36:09.350Z,14.20
2023-03-20T15:38:36.868Z,13.93
2023-03-20T15:41:08.063Z,13.80
2023-03-20T15:43:35.893Z,13.83
2023-03-20T15:46:17.339Z,12.73
2023-03-20T15:48:49.250Z,13.43
2023-03-20T15:51:17.511Z,12.90
2023-03-20T15:53:47.487Z,11.70
2023-03-20T15:56:19.410Z,11.07
2023-03-20T15:58:50.796Z,11.40
2023-03-20T16:01:23.814Z,11.27
2023-03-20T16:03:51.907Z,10.83
2023-03-20T16:06:21.933Z,11.23
2023-03-20T16:09:18.082Z,11.10
2023-03-20T16:11:54.966Z,10.17
2023-03-20T16:14:24.885Z,9.80
2023-03-20T16:16:54.989Z,10.03
2023-03-20T16:19:22.308Z,9.97
2023-03-20T16:22:02.925Z,10.10
2023-03-20T16:24:35.984Z,9.43
2023-03-20T16:27:07.246Z,10.43
2023-03-20T16:29:34.230Z,10.10
2023-03-20T16:32:06.232Z,9.70
2023-03-20T16:34:36.324Z,10.40
2023-03-20T16:37:20.678Z,9.47
2023-03-20T16:39:47.393Z,9.60
2023-03-20T16:42:26.029Z,8.60
2023-03-20T16:44:57.978Z,9.23
2023-03-20T16:47:34.354Z,9.13
2023-03-20T16:50:22.165Z,8.53
2023-03-20T16:52:57.863Z,8.37
2023-03-20T16:55:31.818Z,8.60
2023-03-20T16:58:05.909Z,9.13
2023-03-20T17:00:46.033Z,7.73
2023-03-20T17:03:16.526Z,8.57
2023-03-20T17:06:08.413Z,8.63
2023-03-20T17:08:40.730Z,8.53
2023-03-20T17:11:14.442Z,7.90
2023-03-20T17:13:41.775Z,8.07
2023-03-20T17:16:16.867Z,7.70
2023-03-20T17:19:20.475Z,8.03
2023-03-20T17:21:47.908Z,6.93
2023-03-20T17:24:16.764Z,7.53
2023-03-20T17:26:50.059Z,7.70
2023-03-20T17:29:16.927Z,7.63
2023-03-20T17:31:43.632Z,8.10
2023-03-20T17:34:14.168Z,8.13
2023-03-20T17:36:40.888Z,9.00
2023-03-20T17:39:07.874Z,11.07
2023-03-20T17:41:34.684Z,14.30
2023-03-20T17:44:01.397Z,8.50
2023-03-20T17:46:32.370Z,8.97
2023-03-20T17:49:07.343Z,10.07
2023-03-20T17:51:35.324Z,8.83
2023-03-20T17:54:02.010Z,8.57
2023-03-20T17:56:30.311Z,9.77
2023-03-20T17:58:57.707Z,10.30
2023-03-20T18:01:25.408Z,9.97
2023-03-20T18:03:52.309Z,9.77
2023-03-20T18:06:27.125Z,9.00
2023-03-20T18:08:55.210Z,8.73
2023-03-20T18:11:22.433Z,7.43
2023-03-20T18:13:49.261Z,5.50
2023-03-20T18:16:19.174Z,5.07
2023-03-20T18:18:46.243Z,5.73
2023-03-20T18:21:13.698Z,4.67
2023-03-20T18:23:40.400Z,4.40
2023-03-20T18:26:27.600Z,4.70
2023-03-20T18:28:55.749Z,5.23
2023-03-20T18:31:22.938Z,4.53
2023-03-20T18:33:52.036Z,5.20
2023-03-20T18:36:28.110Z,6.03
2023-03-20T18:38:54.798Z,5.60
2023-03-20T18:41:21.826Z,5.80
2023-03-20T18:43:49.222Z,6.03
2023-03-20T18:46:21.392Z,6.03
2023-03-20T18:48:49.767Z,6.37
2023-03-20T18:51:16.517Z,6.13
2023-03-20T18:53:44.225Z,6.43
2023-03-20T18:56:17.409Z,5.80
2023-03-20T18:58:44.858Z,6.00
2023-03-20T19:01:12.888Z,5.83
2023-03-20T19:03:41.483Z,6.03
2023-03-20T19:06:20.497Z,6.37
2023-03-20T19:08:48.142Z,6.30
2023-03-20T19:11:17.831Z,6.47
2023-03-20T19:13:54.635Z,8.23
2023-03-20T19:16:27.047Z,7.23
2023-03-20T19:18:55.394Z,7.60
2023-03-20T19:21:26.473Z,8.07
2023-03-20T19:23:57.317Z,8.37
2023-03-20T19:26:25.913Z,8.00
2023-03-20T19:28:54.335Z,7.93
2023-03-20T19:31:21.763Z,10.73
2023-03-20T19:33:49.221Z,13.43
2023-03-20T19:36:31.561Z,11.53
2023-03-20T19:39:00.011Z,10.00
2023-03-20T19:41:28.784Z,9.57
2023-03-20T19:43:57.400Z,8.43
2023-03-20T19:46:39.066Z,7.07
2023-03-20T19:49:17.939Z,7.20
2023-03-20T19:51:45.182Z,6.03
2023-03-20T19:54:12.080Z,6.80
2023-03-20T19:56:38.821Z,7.40
2023-03-20T19:59:05.999Z,6.50
2023-03-20T20:01:32.758Z,6.67
2023-03-20T20:03:59.478Z,7.30
2023-03-20T20:06:31.113Z,6.37
2023-03-20T20:08:59.500Z,6.27
2023-03-20T20:11:26.235Z,8.47
2023-03-20T20:14:10.005Z,7.47
2023-03-20T20:16:40.044Z,8.53
2023-03-20T20:19:06.996Z,8.07
2023-03-20T20:24:21.013Z,8.83
2023-03-20T20:26:54.964Z,10.03
2023-03-20T20:29:26.918Z,9.00
2023-03-20T20:31:53.787Z,8.67
2023-03-20T20:39:54.380Z,10.67
2023-03-20T20:42:21.534Z,10.00
2023-03-20T20:44:48.786Z,10.83
2023-03-20T20:47:16.108Z,11.90
2023-03-20T20:49:46.014Z,11.30
2023-03-20T20:52:13.596Z,12.13
2023-03-20T20:54:43.166Z,13.27
2023-03-20T20:57:11.942Z,12.90
2023-03-20T20:59:40.924Z,13.40
2023-03-20T21:02:12.701Z,14.00
2023-03-20T21:04:41.007Z,14.47
2023-03-20T21:07:13.301Z,15.03
2023-03-20T21:09:40.691Z,14.87
2023-03-20T21:12:09.997Z,16.13
2023-03-20T21:14:38.386Z,16.37
2023-03-20T21:17:06.547Z,16.63
2023-03-20T21:19:38.113Z,15.97
2023-03-20T21:22:09.017Z,15.80
2023-03-20T21:24:40.583Z,16.40
2023-03-20T21:27:14.799Z,16.87
2023-03-20T21:29:48.881Z,17.57
2023-03-20T21:32:19.893Z,17.13
2023-03-20T21:34:48.700Z,17.77
2023-03-20T21:38:25.774Z,18.00
2023-03-20T21:40:07.353Z,17.33
2023-03-20T21:42:37.037Z,18.43
2023-03-20T21:46:06.715Z,17.30
2023-03-20T21:48:31.650Z,17.53
2023-03-20T21:51:42.374Z,18.67
2023-03-20T21:54:35.903Z,18.00
2023-03-20T21:57:09.745Z,18.37
2023-03-20T22:02:07.137Z,18.60
2023-03-20T22:07:59.650Z,18.53
2023-03-20T22:16:27.140Z,19.87
2023-03-20T22:22:00.046Z,18.17
2023-03-20T22:24:59.601Z,19.27
2023-03-20T22:33:03.632Z,17.67
2023-03-20T22:38:55.146Z,17.77
2023-03-20T22:46:44.799Z,18.60
2023-03-20T22:49:12.323Z,18.37
2023-03-20T22:51:50.713Z,17.87
2023-03-20T22:54:24.358Z,17.13
2023-03-20T22:56:51.042Z,17.83
2023-03-20T22:59:17.739Z,18.53
2023-03-20T23:01:44.424Z,16.83
2023-03-20T23:04:11.131Z,17.57
2023-03-20T23:06:37.832Z,16.27
2023-03-20T23:09:14.473Z,16.40
2023-03-20T23:11:42.010Z,18.13
2023-03-20T23:14:18.249Z,16.97
2023-03-20T23:16:47.111Z,17.03
2023-03-20T23:19:13.844Z,15.83
2023-03-20T23:21:40.588Z,17.50
2023-03-20T23:24:07.534Z,16.30
2023-03-20T23:26:34.206Z,16.77
2023-03-20T23:29:03.323Z,16.60
2023-03-20T23:31:33.437Z,15.63
2023-03-20T23:34:00.256Z,16.33
2023-03-20T23:36:42.694Z,15.90
2023-03-20T23:39:11.592Z,15.67
2023-03-20T23:42:08.364Z,16.23
2023-03-20T23:44:25.885Z,16.20
2023-03-20T23:46:53.054Z,15.10
2023-03-20T23:49:19.786Z,16.60
2023-03-20T23:51:46.590Z,16.23
2023-03-20T23:54:13.536Z,16.77
2023-03-20T23:56:40.405Z,15.50
2023-03-20T23:59:18.726Z,15.33
